Terminal Aerodrome Forecast
Issued by NWS Des Moines, IA

Home | Current Version | Previous Version | Text Only | Print | Product List | Glossary On
Versions: 1 2 3 4 5 6 7 8 9 10 11 12 13 14 15 16 17 18 19 20 21 22 23 24 25 26 27 28 29 30 31 32 33 34 35
000
FTUS43 KDMX 292023 AAA
TAFALO
TAF AMD
KALO 292023Z 2920/3018 20011KT P6SM SCT050 BKN120
     FM292100 22007KT P6SM VCTS SCT030CB BKN050 OVC100
      TEMPO 2922/3001 21015G25KT 3SM TSRA BKN025CB
     FM300300 25005KT 6SM BR VCSH SCT020 BKN035 OVC070
     FM300800 28004KT 3SM BR SCT008 BKN014
     FM301500 27008KT 6SM BR SCT010=

USA.gov is the U.S. government's official web portal to all federal, state and local government web resources and services.